Flight Track Log - Related Links

Times and Time Zones

All times are in EDT time to prevent confusion due to time zone crossing. See the USC105 flight status page for this flight to view local times or setup timezone preferences in your user account.

Time Position Orientation Groundspeed Altitude Reporting Facility
EDT Latitude Longitude Course Direction KTS MPH feet Rate Location/Type
Tue 12:25:22 AM 42.2169 -83.5719 246° West 125 144 1,800  Level Cleveland Center
Tue 12:26:23 AM 42.2136 -83.6278 265° West 141 162 2,900 1,091 Climbing Cleveland Center
Tue 12:27:23 AM 42.2142 -83.6783 271° West 144 166 4,000 1,041 Climbing Cleveland Center
Tue 12:28:24 AM 42.2128 -83.7344 268° West 147 169 5,000 992 Climbing Cleveland Center
Tue 12:29:24 AM 42.2089 -83.7931 265° West 147 169 6,000 942 Climbing Cleveland Center
Tue 12:31:16 AM 42.2022 -83.8858 264° West 147 169 7,700 694 Climbing Chicago Center
Tue 12:32:17 AM 42.2019 -83.9433 270° West 151 174 8,000 149 Climbing Chicago Center
Tue 12:33:17 AM 42.1989 -84.0200 267° West 185 213 8,000  Level Chicago Center
Tue 12:34:17 AM 42.1958 -84.0928 267° West 196 226 8,000  Level Chicago Center
Tue 12:35:17 AM 42.1939 -84.1672 268° West 198 228 8,000  Level Chicago Center
Tue 12:36:18 AM 42.1903 -84.2417 266° West 200 230 8,000  Level Chicago Center
Tue 12:37:18 AM 42.1864 -84.3167 266° West 200 230 8,000  Level Chicago Center
Tue 12:38:18 AM 42.1814 -84.3903 265° West 199 229 8,000  Level Chicago Center
Tue 12:39:19 AM 42.1778 -84.4644 266° West 199 229 8,000  Level Chicago Center
Tue 12:40:19 AM 42.1750 -84.5358 267° West 200 230 8,000  Level Chicago Center
Tue 12:41:19 AM 42.1706 -84.6094 265° West 199 229 8,000  Level Chicago Center
Tue 12:42:19 AM 42.1664 -84.6822 266° West 196 226 8,000  Level Chicago Center
Tue 12:43:20 AM 42.1631 -84.7564 267° West 199 229 8,000  Level Chicago Center
Tue 12:44:20 AM 42.1586 -84.8289 265° West 197 227 8,000  Level Chicago Center
Tue 12:45:20 AM 42.1539 -84.9019 265° West 197 227 8,000  Level Chicago Center
Tue 12:46:21 AM 42.1489 -84.9914 266° West 199 229 8,000  Level Chicago Center
Tue 12:47:21 AM 42.1450 -85.0650 266° West 199 229 8,000  Level Chicago Center
Tue 12:48:21 AM 42.1397 -85.1375 264° West 197 227 8,000  Level Chicago Center
Tue 12:49:21 AM 42.1353 -85.2122 265° West 199 229 8,000  Level Chicago Center
Tue 12:50:22 AM 42.1314 -85.2856 266° West 199 229 8,000  Level Chicago Center
Tue 12:51:22 AM 42.1269 -85.3600 265° West 200 230 8,000  Level Chicago Center
Tue 12:52:22 AM 42.1214 -85.4350 264° West 202 232 8,000  Level Chicago Center
Tue 12:53:22 AM 42.1169 -85.5094 265° West 201 231 8,000  Level Chicago Center
Tue 12:54:23 AM 42.1117 -85.5844 265° West 201 231 8,000  Level Chicago Center
Tue 12:55:23 AM 42.1075 -85.6594 266° West 203 234 8,000  Level Chicago Center
Tue 12:56:23 AM 42.1025 -85.7347 265° West 203 234 8,000  Level Chicago Center
Tue 12:57:23 AM 42.0975 -85.8094 265° West 202 232 8,000  Level Chicago Center
Tue 12:58:24 AM 42.0931 -85.8850 265° West 204 235 8,000  Level Chicago Center
Tue 12:59:24 AM 42.0878 -85.9594 265° West 201 231 8,000  Level Chicago Center
Tue 01:00:24 AM 42.0817 -86.0364 264° West 205 236 8,000  Level Chicago Center
Tue 01:01:24 AM 42.0764 -86.1128 265° West 207 238 8,000  Level Chicago Center
Tue 01:02:24 AM 42.0717 -86.1883 265° West 205 236 8,000  Level Chicago Center
Tue 01:03:25 AM 42.0656 -86.2633 264° West 203 234 8,000  Level Chicago Center
Tue 01:04:25 AM 42.0611 -86.3394 266° West 204 235 8,000  Level Chicago Center
Tue 01:05:25 AM 42.0547 -86.4156 264° West 206 237 8,000  Level Chicago Center
Tue 01:06:25 AM 42.0497 -86.4914 265° West 204 235 8,000  Level Chicago Center
Tue 01:07:25 AM 42.0436 -86.5678 264° West 205 236 8,000  Level Chicago Center
Tue 01:08:26 AM 42.0386 -86.6419 265° West 201 231 8,000  Level Chicago Center
Tue 01:09:26 AM 42.0344 -86.7200 266° West 201 231 8,000  Level Chicago Center
Tue 01:10:26 AM 42.0289 -86.7944 264° West 201 231 8,000  Level Chicago Center
Tue 01:11:26 AM 42.0222 -86.8683 263° West 200 230 8,000  Level Chicago Center
Tue 01:12:26 AM 42.0169 -86.9447 265° West 206 237 8,000  Level Chicago Center
Tue 01:13:27 AM 42.0119 -87.0200 265° West 205 236 8,000  Level Chicago Center
Tue 01:14:27 AM 42.0056 -87.0950 263° West 204 235 8,000  Level Chicago Center
Tue 01:15:27 AM 41.9994 -87.1694 264° West 203 234 8,000  Level Chicago Center
Tue 01:16:27 AM 41.9942 -87.2428 264° West 201 231 8,000  Level Chicago Center
Tue 01:17:27 AM 41.9878 -87.3169 263° West 201 231 8,000  Level Chicago Center
Tue 01:18:28 AM 41.9828 -87.3914 265° West 202 232 8,000  Level Chicago Center
Tue 01:19:28 AM 41.9744 -87.4789 263° West 201 231 8,000  Level Chicago Center
Tue 01:20:28 AM 41.9694 -87.5511 265° West 197 227 8,000  Level Chicago Center
Tue 01:21:28 AM 41.9667 -87.6167 267° West 195 224 8,000 -100 Level Chicago TRACON
Tue 01:22:28 AM 41.9500 -87.7000 255° West 196 226 7,800 -600 Descending Chicago TRACON
Tue 01:23:28 AM 41.9500 -87.7667 270° West 217 250 6,800 -900 Descending Chicago TRACON
Tue 01:24:28 AM 41.9500 -87.8500 270° West 212 244 6,000 -650 Descending Chicago TRACON
Tue 01:25:28 AM 41.9333 -87.9333 255° West 213 245 5,500 -800 Descending Chicago TRACON
Tue 01:26:28 AM 41.9333 -88.0000 270° West 208 239 4,400 -714 Descending Chicago TRACON
Tue 01:27:34 AM 41.9167 -88.0833 255° West 185 213 4,000 -545 Descending Chicago TRACON
Tue 01:28:29 AM 41.9111 -88.1375 262° West 188 216 3,300 -879 Descending Chicago Center
Tue 01:29:30 AM 41.8875 -88.1994 243° Southwest 206 237 2,300 -744 Descending Chicago Center
Tue 01:30:30 AM 41.8572 -88.2439 228° Southwest 193 222 1,800 -700 Descending Chicago Center
Tue 01:31:30 AM 41.8894 -88.2564 344° North 152 175 900 -900 Descending Chicago Center
Tue 01:33:00 AM 41.9000 -88.2333 37° Northeast  Level FlightAware Approximate

Login

Don't have an account? Register now (free) for customized features, flight alerts, and more!